sensor_id;sensor_type;location;lat;lon;timestamp;P1;durP1;ratioP1;P2;durP2;ratioP2
41061;SDS011;26812;42.662;23.352;2023-08-12T00:01:01;3.08;;;2.63;;
41061;SDS011;26812;42.662;23.352;2023-08-12T00:03:27;2.83;;;2.25;;
41061;SDS011;26812;42.662;23.352;2023-08-12T00:05:52;3.22;;;2.47;;
41061;SDS011;26812;42.662;23.352;2023-08-12T00:08:18;3.22;;;2.75;;
41061;SDS011;26812;42.662;23.352;2023-08-12T00:10:43;2.75;;;2.30;;
41061;SDS011;26812;42.662;23.352;2023-08-12T00:13:09;4.80;;;2.95;;
41061;SDS011;26812;42.662;23.352;2023-08-12T00:15:34;2.80;;;2.15;;
41061;SDS011;26812;42.662;23.352;2023-08-12T00:18:00;2.33;;;2.13;;
41061;SDS011;26812;42.662;23.352;2023-08-12T00:20:25;2.38;;;2.17;;
41061;SDS011;26812;42.662;23.352;2023-08-12T00:22:51;1.92;;;1.77;;
41061;SDS011;26812;42.662;23.352;2023-08-12T00:25:16;2.88;;;2.20;;
41061;SDS011;26812;42.662;23.352;2023-08-12T00:27:42;2.30;;;2.10;;
41061;SDS011;26812;42.662;23.352;2023-08-12T00:30:07;2.50;;;2.30;;
41061;SDS011;26812;42.662;23.352;2023-08-12T00:32:34;2.20;;;2.00;;
41061;SDS011;26812;42.662;23.352;2023-08-12T00:34:59;3.50;;;2.00;;
41061;SDS011;26812;42.662;23.352;2023-08-12T00:37:25;2.50;;;1.85;;
41061;SDS011;26812;42.662;23.352;2023-08-12T00:39:50;2.42;;;2.10;;
41061;SDS011;26812;42.662;23.352;2023-08-12T00:42:16;2.63;;;2.42;;
41061;SDS011;26812;42.662;23.352;2023-08-12T00:44:41;2.55;;;1.60;;
41061;SDS011;26812;42.662;23.352;2023-08-12T00:47:06;2.95;;;2.50;;
41061;SDS011;26812;42.662;23.352;2023-08-12T00:49:32;2.83;;;2.45;;
41061;SDS011;26812;42.662;23.352;2023-08-12T00:51:58;2.15;;;1.95;;
41061;SDS011;26812;42.662;23.352;2023-08-12T00:54:24;4.32;;;2.42;;
41061;SDS011;26812;42.662;23.352;2023-08-12T00:56:51;3.80;;;2.72;;
41061;SDS011;26812;42.662;23.352;2023-08-12T00:59:18;2.53;;;2.33;;
41061;SDS011;26812;42.662;23.352;2023-08-12T01:01:44;4.82;;;2.30;;
41061;SDS011;26812;42.662;23.352;2023-08-12T01:04:11;2.63;;;2.38;;
41061;SDS011;26812;42.662;23.352;2023-08-12T01:06:36;2.72;;;2.50;;
41061;SDS011;26812;42.662;23.352;2023-08-12T01:09:04;3.25;;;2.50;;
41061;SDS011;26812;42.662;23.352;2023-08-12T01:14:24;3.05;;;2.40;;
41061;SDS011;26812;42.662;23.352;2023-08-12T01:16:56;7.68;;;2.60;;
41061;SDS011;26812;42.662;23.352;2023-08-12T01:19:30;2.60;;;2.40;;
41061;SDS011;26812;42.662;23.352;2023-08-12T01:21:59;2.40;;;2.25;;
41061;SDS011;26812;42.662;23.352;2023-08-12T01:24:26;2.50;;;2.30;;
41061;SDS011;26812;42.662;23.352;2023-08-12T01:26:52;2.90;;;2.33;;
41061;SDS011;26812;42.662;23.352;2023-08-12T01:29:17;2.97;;;2.30;;
41061;SDS011;26812;42.662;23.352;2023-08-12T01:31:55;2.00;;;1.90;;
41061;SDS011;26812;42.662;23.352;2023-08-12T01:37:17;2.40;;;1.98;;
41061;SDS011;26812;42.662;23.352;2023-08-12T01:39:48;2.63;;;2.42;;
41061;SDS011;26812;42.662;23.352;2023-08-12T01:42:15;2.38;;;2.17;;
41061;SDS011;26812;42.662;23.352;2023-08-12T01:44:43;2.85;;;2.65;;
41061;SDS011;26812;42.662;23.352;2023-08-12T01:47:09;2.25;;;2.05;;
41061;SDS011;26812;42.662;23.352;2023-08-12T01:49:34;2.40;;;2.20;;
41061;SDS011;26812;42.662;23.352;2023-08-12T01:51:59;2.42;;;2.25;;
41061;SDS011;26812;42.662;23.352;2023-08-12T01:54:25;2.20;;;2.00;;
41061;SDS011;26812;42.662;23.352;2023-08-12T01:56:50;2.95;;;2.55;;
41061;SDS011;26812;42.662;23.352;2023-08-12T01:59:16;3.28;;;2.33;;
41061;SDS011;26812;42.662;23.352;2023-08-12T02:01:41;2.30;;;2.10;;
41061;SDS011;26812;42.662;23.352;2023-08-12T02:04:06;2.72;;;2.42;;
41061;SDS011;26812;42.662;23.352;2023-08-12T02:06:32;2.30;;;2.10;;
41061;SDS011;26812;42.662;23.352;2023-08-12T02:08:57;3.08;;;2.22;;
41061;SDS011;26812;42.662;23.352;2023-08-12T02:11:22;2.58;;;2.38;;
41061;SDS011;26812;42.662;23.352;2023-08-12T02:13:48;3.17;;;2.55;;
41061;SDS011;26812;42.662;23.352;2023-08-12T02:16:13;2.28;;;2.08;;
41061;SDS011;26812;42.662;23.352;2023-08-12T02:18:38;2.88;;;2.13;;
41061;SDS011;26812;42.662;23.352;2023-08-12T02:21:04;2.80;;;2.60;;
41061;SDS011;26812;42.662;23.352;2023-08-12T02:23:29;3.35;;;3.03;;
41061;SDS011;26812;42.662;23.352;2023-08-12T02:25:54;3.10;;;2.80;;
41061;SDS011;26812;42.662;23.352;2023-08-12T02:28:20;3.22;;;2.92;;
41061;SDS011;26812;42.662;23.352;2023-08-12T02:30:52;2.83;;;2.10;;
41061;SDS011;26812;42.662;23.352;2023-08-12T02:33:17;2.33;;;2.13;;
41061;SDS011;26812;42.662;23.352;2023-08-12T02:35:42;2.20;;;2.00;;
41061;SDS011;26812;42.662;23.352;2023-08-12T02:38:08;2.35;;;2.17;;
41061;SDS011;26812;42.662;23.352;2023-08-12T02:40:33;3.58;;;2.10;;
41061;SDS011;26812;42.662;23.352;2023-08-12T02:42:59;2.22;;;2.03;;
41061;SDS011;26812;42.662;23.352;2023-08-12T02:45:24;2.63;;;2.15;;
41061;SDS011;26812;42.662;23.352;2023-08-12T02:47:49;2.45;;;2.25;;
41061;SDS011;26812;42.662;23.352;2023-08-12T02:50:15;2.45;;;1.98;;
41061;SDS011;26812;42.662;23.352;2023-08-12T02:52:40;2.40;;;2.20;;
41061;SDS011;26812;42.662;23.352;2023-08-12T02:55:05;3.25;;;2.30;;
41061;SDS011;26812;42.662;23.352;2023-08-12T02:57:31;2.28;;;1.90;;
41061;SDS011;26812;42.662;23.352;2023-08-12T02:59:56;3.88;;;2.33;;
41061;SDS011;26812;42.662;23.352;2023-08-12T03:02:22;3.10;;;2.10;;
41061;SDS011;26812;42.662;23.352;2023-08-12T03:04:47;2.10;;;1.90;;
41061;SDS011;26812;42.662;23.352;2023-08-12T03:07:12;3.58;;;2.28;;
41061;SDS011;26812;42.662;23.352;2023-08-12T03:09:38;2.88;;;2.20;;
41061;SDS011;26812;42.662;23.352;2023-08-12T03:12:03;2.83;;;2.25;;
41061;SDS011;26812;42.662;23.352;2023-08-12T03:14:36;4.45;;;2.65;;
41061;SDS011;26812;42.662;23.352;2023-08-12T03:17:01;3.72;;;2.47;;
41061;SDS011;26812;42.662;23.352;2023-08-12T03:19:27;4.00;;;2.42;;
41061;SDS011;26812;42.662;23.352;2023-08-12T03:21:52;3.00;;;2.17;;
41061;SDS011;26812;42.662;23.352;2023-08-12T03:24:18;2.78;;;2.10;;
41061;SDS011;26812;42.662;23.352;2023-08-12T03:26:43;2.60;;;2.40;;
41061;SDS011;26812;42.662;23.352;2023-08-12T03:29:09;2.70;;;2.45;;
41061;SDS011;26812;42.662;23.352;2023-08-12T03:31:34;4.05;;;2.40;;
41061;SDS011;26812;42.662;23.352;2023-08-12T03:33:59;2.78;;;2.10;;
41061;SDS011;26812;42.662;23.352;2023-08-12T03:36:25;2.47;;;2.17;;
41061;SDS011;26812;42.662;23.352;2023-08-12T03:38:51;2.33;;;2.13;;
41061;SDS011;26812;42.662;23.352;2023-08-12T03:41:16;4.05;;;2.80;;
41061;SDS011;26812;42.662;23.352;2023-08-12T03:43:42;2.63;;;2.42;;
41061;SDS011;26812;42.662;23.352;2023-08-12T03:46:07;4.07;;;2.30;;
41061;SDS011;26812;42.662;23.352;2023-08-12T03:48:32;2.83;;;2.50;;
41061;SDS011;26812;42.662;23.352;2023-08-12T03:50:58;2.97;;;2.28;;
41061;SDS011;26812;42.662;23.352;2023-08-12T03:53:23;2.42;;;2.22;;
41061;SDS011;26812;42.662;23.352;2023-08-12T03:55:48;2.30;;;2.08;;
41061;SDS011;26812;42.662;23.352;2023-08-12T03:58:14;3.38;;;2.33;;
41061;SDS011;26812;42.662;23.352;2023-08-12T04:00:42;3.15;;;2.88;;
41061;SDS011;26812;42.662;23.352;2023-08-12T04:03:08;5.10;;;2.83;;
41061;SDS011;26812;42.662;23.352;2023-08-12T04:05:34;3.50;;;2.50;;
41061;SDS011;26812;42.662;23.352;2023-08-12T04:07:59;3.42;;;2.83;;
41061;SDS011;26812;42.662;23.352;2023-08-12T04:10:25;3.53;;;3.22;;
41061;SDS011;26812;42.662;23.352;2023-08-12T04:12:50;3.83;;;3.15;;
41061;SDS011;26812;42.662;23.352;2023-08-12T04:15:15;3.55;;;3.25;;
41061;SDS011;26812;42.662;23.352;2023-08-12T04:17:41;4.25;;;3.50;;
41061;SDS011;26812;42.662;23.352;2023-08-12T04:20:07;3.97;;;3.15;;
41061;SDS011;26812;42.662;23.352;2023-08-12T04:22:32;4.60;;;3.13;;
41061;SDS011;26812;42.662;23.352;2023-08-12T04:24:59;5.85;;;4.00;;
41061;SDS011;26812;42.662;23.352;2023-08-12T04:27:24;4.18;;;3.50;;
41061;SDS011;26812;42.662;23.352;2023-08-12T04:29:50;3.25;;;2.88;;
41061;SDS011;26812;42.662;23.352;2023-08-12T04:32:15;3.97;;;3.25;;
41061;SDS011;26812;42.662;23.352;2023-08-12T04:34:40;4.32;;;3.25;;
41061;SDS011;26812;42.662;23.352;2023-08-12T04:37:06;4.20;;;3.80;;
41061;SDS011;26812;42.662;23.352;2023-08-12T04:39:32;4.88;;;3.25;;
41061;SDS011;26812;42.662;23.352;2023-08-12T04:41:57;4.40;;;4.00;;
41061;SDS011;26812;42.662;23.352;2023-08-12T04:44:23;4.85;;;3.83;;
41061;SDS011;26812;42.662;23.352;2023-08-12T04:46:48;3.65;;;3.30;;
41061;SDS011;26812;42.662;23.352;2023-08-12T04:49:15;4.88;;;4.03;;
41061;SDS011;26812;42.662;23.352;2023-08-12T04:51:41;4.55;;;3.45;;
41061;SDS011;26812;42.662;23.352;2023-08-12T04:54:06;3.63;;;3.33;;
41061;SDS011;26812;42.662;23.352;2023-08-12T04:56:33;3.78;;;3.42;;
41061;SDS011;26812;42.662;23.352;2023-08-12T04:58:58;3.53;;;3.22;;
41061;SDS011;26812;42.662;23.352;2023-08-12T05:01:23;3.78;;;3.30;;
41061;SDS011;26812;42.662;23.352;2023-08-12T05:03:49;6.38;;;3.33;;
41061;SDS011;26812;42.662;23.352;2023-08-12T05:06:14;3.78;;;2.92;;
41061;SDS011;26812;42.662;23.352;2023-08-12T05:08:39;3.08;;;2.80;;
41061;SDS011;26812;42.662;23.352;2023-08-12T05:11:05;3.67;;;3.15;;
41061;SDS011;26812;42.662;23.352;2023-08-12T05:13:30;4.10;;;3.45;;
41061;SDS011;26812;42.662;23.352;2023-08-12T05:15:56;4.32;;;3.70;;
41061;SDS011;26812;42.662;23.352;2023-08-12T05:18:22;5.32;;;3.67;;
41061;SDS011;26812;42.662;23.352;2023-08-12T05:20:51;3.80;;;3.30;;
41061;SDS011;26812;42.662;23.352;2023-08-12T05:23:17;4.30;;;3.80;;
41061;SDS011;26812;42.662;23.352;2023-08-12T05:25:45;5.05;;;3.60;;
41061;SDS011;26812;42.662;23.352;2023-08-12T05:28:10;3.80;;;3.45;;
41061;SDS011;26812;42.662;23.352;2023-08-12T05:30:35;3.35;;;3.08;;
41061;SDS011;26812;42.662;23.352;2023-08-12T05:33:01;4.00;;;2.33;;
41061;SDS011;26812;42.662;23.352;2023-08-12T05:35:27;2.70;;;2.35;;
41061;SDS011;26812;42.662;23.352;2023-08-12T05:37:53;3.88;;;2.22;;
41061;SDS011;26812;42.662;23.352;2023-08-12T05:40:18;3.00;;;2.10;;
41061;SDS011;26812;42.662;23.352;2023-08-12T05:42:43;3.20;;;2.63;;
41061;SDS011;26812;42.662;23.352;2023-08-12T05:45:09;2.72;;;2.05;;
41061;SDS011;26812;42.662;23.352;2023-08-12T05:47:35;3.08;;;2.50;;
41061;SDS011;26812;42.662;23.352;2023-08-12T05:50:01;2.70;;;2.50;;
41061;SDS011;26812;42.662;23.352;2023-08-12T05:52:26;2.78;;;2.17;;
41061;SDS011;26812;42.662;23.352;2023-08-12T05:54:51;3.33;;;2.00;;
41061;SDS011;26812;42.662;23.352;2023-08-12T05:57:17;2.60;;;2.17;;
41061;SDS011;26812;42.662;23.352;2023-08-12T05:59:42;2.55;;;2.20;;
41061;SDS011;26812;42.662;23.352;2023-08-12T06:02:07;2.63;;;2.40;;
41061;SDS011;26812;42.662;23.352;2023-08-12T06:04:34;2.30;;;2.10;;
41061;SDS011;26812;42.662;23.352;2023-08-12T06:06:59;1.73;;;1.63;;
41061;SDS011;26812;42.662;23.352;2023-08-12T06:09:25;2.22;;;2.00;;
41061;SDS011;26812;42.662;23.352;2023-08-12T06:11:50;2.75;;;2.15;;
41061;SDS011;26812;42.662;23.352;2023-08-12T06:14:15;3.83;;;2.40;;
41061;SDS011;26812;42.662;23.352;2023-08-12T06:16:41;4.00;;;2.30;;
41061;SDS011;26812;42.662;23.352;2023-08-12T06:19:06;2.95;;;2.25;;
41061;SDS011;26812;42.662;23.352;2023-08-12T06:21:38;3.90;;;3.00;;
41061;SDS011;26812;42.662;23.352;2023-08-12T06:24:03;2.25;;;1.80;;
41061;SDS011;26812;42.662;23.352;2023-08-12T06:26:29;3.40;;;2.47;;
41061;SDS011;26812;42.662;23.352;2023-08-12T06:28:54;2.75;;;2.15;;
41061;SDS011;26812;42.662;23.352;2023-08-12T06:31:19;2.83;;;2.15;;
41061;SDS011;26812;42.662;23.352;2023-08-12T06:33:45;3.20;;;2.55;;
41061;SDS011;26812;42.662;23.352;2023-08-12T06:36:10;5.93;;;2.50;;
41061;SDS011;26812;42.662;23.352;2023-08-12T06:38:36;3.10;;;2.70;;
41061;SDS011;26812;42.662;23.352;2023-08-12T06:41:01;5.53;;;2.28;;
41061;SDS011;26812;42.662;23.352;2023-08-12T06:43:26;4.53;;;2.20;;
41061;SDS011;26812;42.662;23.352;2023-08-12T06:45:52;2.67;;;2.20;;
41061;SDS011;26812;42.662;23.352;2023-08-12T06:48:17;5.80;;;2.60;;
41061;SDS011;26812;42.662;23.352;2023-08-12T06:50:42;3.75;;;2.80;;
41061;SDS011;26812;42.662;23.352;2023-08-12T06:53:08;4.55;;;3.47;;
41061;SDS011;26812;42.662;23.352;2023-08-12T06:55:34;2.25;;;2.05;;
41061;SDS011;26812;42.662;23.352;2023-08-12T06:57:59;2.72;;;2.20;;
41061;SDS011;26812;42.662;23.352;2023-08-12T07:00:26;3.80;;;2.60;;
41061;SDS011;26812;42.662;23.352;2023-08-12T07:02:51;2.72;;;2.17;;
41061;SDS011;26812;42.662;23.352;2023-08-12T07:05:17;3.60;;;2.30;;
41061;SDS011;26812;42.662;23.352;2023-08-12T07:07:42;2.58;;;2.13;;
41061;SDS011;26812;42.662;23.352;2023-08-12T07:10:07;3.25;;;2.15;;
41061;SDS011;26812;42.662;23.352;2023-08-12T07:12:33;2.95;;;2.20;;
41061;SDS011;26812;42.662;23.352;2023-08-12T07:14:59;2.20;;;2.00;;
41061;SDS011;26812;42.662;23.352;2023-08-12T07:17:31;2.65;;;2.30;;
41061;SDS011;26812;42.662;23.352;2023-08-12T07:19:56;2.42;;;2.22;;
41061;SDS011;26812;42.662;23.352;2023-08-12T07:22:21;1.77;;;1.63;;
41061;SDS011;26812;42.662;23.352;2023-08-12T07:24:47;2.22;;;2.03;;
41061;SDS011;26812;42.662;23.352;2023-08-12T07:27:12;2.35;;;2.15;;
41061;SDS011;26812;42.662;23.352;2023-08-12T07:29:37;3.05;;;2.35;;
41061;SDS011;26812;42.662;23.352;2023-08-12T07:32:03;2.33;;;2.05;;
41061;SDS011;26812;42.662;23.352;2023-08-12T07:34:29;5.10;;;2.20;;
41061;SDS011;26812;42.662;23.352;2023-08-12T07:36:54;2.25;;;1.98;;
41061;SDS011;26812;42.662;23.352;2023-08-12T07:39:19;2.80;;;2.22;;
41061;SDS011;26812;42.662;23.352;2023-08-12T07:41:45;3.13;;;2.25;;
41061;SDS011;26812;42.662;23.352;2023-08-12T07:44:11;2.80;;;2.22;;
41061;SDS011;26812;42.662;23.352;2023-08-12T07:46:36;3.10;;;2.28;;
41061;SDS011;26812;42.662;23.352;2023-08-12T07:49:02;2.33;;;2.13;;
41061;SDS011;26812;42.662;23.352;2023-08-12T07:51:27;3.10;;;2.40;;
41061;SDS011;26812;42.662;23.352;2023-08-12T07:53:52;3.00;;;2.80;;
41061;SDS011;26812;42.662;23.352;2023-08-12T07:56:18;2.63;;;2.42;;
41061;SDS011;26812;42.662;23.352;2023-08-12T07:58:43;4.35;;;2.55;;
41061;SDS011;26812;42.662;23.352;2023-08-12T08:01:10;2.67;;;2.45;;
41061;SDS011;26812;42.662;23.352;2023-08-12T08:03:36;2.72;;;2.22;;
41061;SDS011;26812;42.662;23.352;2023-08-12T08:06:01;3.90;;;2.88;;
41061;SDS011;26812;42.662;23.352;2023-08-12T08:08:26;2.53;;;2.20;;
41061;SDS011;26812;42.662;23.352;2023-08-12T08:10:52;2.33;;;2.13;;
41061;SDS011;26812;42.662;23.352;2023-08-12T08:13:17;2.92;;;2.00;;
41061;SDS011;26812;42.662;23.352;2023-08-12T08:15:43;2.45;;;2.25;;
41061;SDS011;26812;42.662;23.352;2023-08-12T08:18:08;2.38;;;2.17;;
41061;SDS011;26812;42.662;23.352;2023-08-12T08:20:33;2.38;;;2.17;;
41061;SDS011;26812;42.662;23.352;2023-08-12T08:22:59;3.08;;;1.80;;
41061;SDS011;26812;42.662;23.352;2023-08-12T08:25:24;2.80;;;2.10;;
41061;SDS011;26812;42.662;23.352;2023-08-12T08:27:50;3.00;;;1.80;;
41061;SDS011;26812;42.662;23.352;2023-08-12T08:30:15;2.17;;;1.98;;
41061;SDS011;26812;42.662;23.352;2023-08-12T08:32:41;3.03;;;2.38;;
41061;SDS011;26812;42.662;23.352;2023-08-12T08:35:06;2.13;;;1.83;;
41061;SDS011;26812;42.662;23.352;2023-08-12T08:37:32;3.20;;;1.90;;
41061;SDS011;26812;42.662;23.352;2023-08-12T08:39:57;2.45;;;2.20;;
41061;SDS011;26812;42.662;23.352;2023-08-12T08:42:23;2.42;;;2.22;;
41061;SDS011;26812;42.662;23.352;2023-08-12T08:44:51;2.30;;;2.10;;
41061;SDS011;26812;42.662;23.352;2023-08-12T08:47:19;3.33;;;2.05;;
41061;SDS011;26812;42.662;23.352;2023-08-12T08:49:51;2.08;;;1.73;;
41061;SDS011;26812;42.662;23.352;2023-08-12T08:52:17;2.10;;;1.85;;
41061;SDS011;26812;42.662;23.352;2023-08-12T08:54:43;1.83;;;1.70;;
41061;SDS011;26812;42.662;23.352;2023-08-12T08:57:09;3.00;;;2.30;;
41061;SDS011;26812;42.662;23.352;2023-08-12T08:59:34;3.38;;;1.52;;
41061;SDS011;26812;42.662;23.352;2023-08-12T09:01:59;3.92;;;1.85;;
41061;SDS011;26812;42.662;23.352;2023-08-12T09:04:25;2.63;;;2.03;;
41061;SDS011;26812;42.662;23.352;2023-08-12T09:06:52;2.03;;;1.83;;
41061;SDS011;26812;42.662;23.352;2023-08-12T09:09:18;2.03;;;1.77;;
41061;SDS011;26812;42.662;23.352;2023-08-12T09:11:45;2.28;;;1.98;;
41061;SDS011;26812;42.662;23.352;2023-08-12T09:14:12;1.73;;;1.63;;
41061;SDS011;26812;42.662;23.352;2023-08-12T09:16:38;2.78;;;2.05;;
41061;SDS011;26812;42.662;23.352;2023-08-12T09:19:04;3.60;;;1.63;;
41061;SDS011;26812;42.662;23.352;2023-08-12T09:21:29;1.73;;;1.60;;
41061;SDS011;26812;42.662;23.352;2023-08-12T09:23:55;2.42;;;2.22;;
41061;SDS011;26812;42.662;23.352;2023-08-12T09:26:21;4.03;;;2.17;;
41061;SDS011;26812;42.662;23.352;2023-08-12T09:28:47;2.63;;;2.22;;
41061;SDS011;26812;42.662;23.352;2023-08-12T09:33:49;3.38;;;2.40;;
41061;SDS011;26812;42.662;23.352;2023-08-12T09:36:15;3.53;;;2.25;;
41061;SDS011;26812;42.662;23.352;2023-08-12T09:38:40;2.22;;;1.98;;
41061;SDS011;26812;42.662;23.352;2023-08-12T09:41:06;2.38;;;1.90;;
41061;SDS011;26812;42.662;23.352;2023-08-12T09:43:31;3.08;;;1.90;;
41061;SDS011;26812;42.662;23.352;2023-08-12T09:45:57;2.28;;;2.05;;
41061;SDS011;26812;42.662;23.352;2023-08-12T09:48:23;2.05;;;1.75;;
41061;SDS011;26812;42.662;23.352;2023-08-12T09:50:50;2.38;;;2.00;;
41061;SDS011;26812;42.662;23.352;2023-08-12T09:53:16;2.17;;;1.83;;
41061;SDS011;26812;42.662;23.352;2023-08-12T09:55:42;2.28;;;2.08;;
41061;SDS011;26812;42.662;23.352;2023-08-12T09:58:09;2.15;;;1.95;;
41061;SDS011;26812;42.662;23.352;2023-08-12T10:00:36;2.17;;;1.98;;
41061;SDS011;26812;42.662;23.352;2023-08-12T10:03:01;2.55;;;1.77;;
41061;SDS011;26812;42.662;23.352;2023-08-12T10:05:28;3.25;;;1.73;;
41061;SDS011;26812;42.662;23.352;2023-08-12T10:07:56;4.45;;;1.88;;
41061;SDS011;26812;42.662;23.352;2023-08-12T10:10:23;2.47;;;1.95;;
41061;SDS011;26812;42.662;23.352;2023-08-12T10:12:50;2.00;;;1.80;;
41061;SDS011;26812;42.662;23.352;2023-08-12T10:15:15;2.35;;;1.83;;
41061;SDS011;26812;42.662;23.352;2023-08-12T10:17:41;2.97;;;1.85;;
41061;SDS011;26812;42.662;23.352;2023-08-12T10:20:20;3.22;;;1.85;;
41061;SDS011;26812;42.662;23.352;2023-08-12T10:22:53;2.42;;;1.75;;
41061;SDS011;26812;42.662;23.352;2023-08-12T10:25:20;3.60;;;1.98;;
41061;SDS011;26812;42.662;23.352;2023-08-12T10:27:49;2.13;;;1.92;;
41061;SDS011;26812;42.662;23.352;2023-08-12T10:30:15;4.75;;;2.03;;
41061;SDS011;26812;42.662;23.352;2023-08-12T10:32:40;2.83;;;1.77;;
41061;SDS011;26812;42.662;23.352;2023-08-12T10:35:07;2.92;;;1.90;;
41061;SDS011;26812;42.662;23.352;2023-08-12T10:37:33;2.13;;;2.00;;
41061;SDS011;26812;42.662;23.352;2023-08-12T10:40:20;2.67;;;1.92;;
41061;SDS011;26812;42.662;23.352;2023-08-12T10:42:47;1.60;;;1.42;;
41061;SDS011;26812;42.662;23.352;2023-08-12T10:45:15;2.40;;;1.70;;
41061;SDS011;26812;42.662;23.352;2023-08-12T10:47:42;2.00;;;1.90;;
41061;SDS011;26812;42.662;23.352;2023-08-12T10:50:34;3.58;;;1.70;;
41061;SDS011;26812;42.662;23.352;2023-08-12T10:52:59;1.83;;;1.70;;
41061;SDS011;26812;42.662;23.352;2023-08-12T10:55:58;3.90;;;1.80;;
41061;SDS011;26812;42.662;23.352;2023-08-12T10:58:35;2.30;;;1.70;;
41061;SDS011;26812;42.662;23.352;2023-08-12T11:01:08;2.70;;;2.40;;
41061;SDS011;26812;42.662;23.352;2023-08-12T11:03:38;1.60;;;1.20;;
41061;SDS011;26812;42.662;23.352;2023-08-12T11:06:09;1.73;;;1.50;;
41061;SDS011;26812;42.662;23.352;2023-08-12T11:08:35;2.03;;;1.70;;
41061;SDS011;26812;42.662;23.352;2023-08-12T11:11:01;1.65;;;1.50;;
41061;SDS011;26812;42.662;23.352;2023-08-12T11:13:27;1.60;;;1.40;;
41061;SDS011;26812;42.662;23.352;2023-08-12T11:15:52;2.15;;;1.42;;
41061;SDS011;26812;42.662;23.352;2023-08-12T11:18:32;2.50;;;1.35;;
41061;SDS011;26812;42.662;23.352;2023-08-12T11:20:58;1.65;;;1.40;;
41061;SDS011;26812;42.662;23.352;2023-08-12T11:23:23;1.65;;;1.48;;
41061;SDS011;26812;42.662;23.352;2023-08-12T11:25:49;1.30;;;1.10;;
41061;SDS011;26812;42.662;23.352;2023-08-12T11:28:17;3.28;;;1.83;;
41061;SDS011;26812;42.662;23.352;2023-08-12T11:30:46;1.40;;;1.30;;
41061;SDS011;26812;42.662;23.352;2023-08-12T11:33:11;1.40;;;1.30;;
41061;SDS011;26812;42.662;23.352;2023-08-12T11:35:37;1.20;;;1.10;;
41061;SDS011;26812;42.662;23.352;2023-08-12T11:38:03;1.00;;;0.90;;
41061;SDS011;26812;42.662;23.352;2023-08-12T11:40:30;1.30;;;1.20;;
41061;SDS011;26812;42.662;23.352;2023-08-12T11:42:55;1.27;;;1.15;;
41061;SDS011;26812;42.662;23.352;2023-08-12T11:45:21;1.58;;;1.38;;
41061;SDS011;26812;42.662;23.352;2023-08-12T11:47:49;2.90;;;1.58;;
41061;SDS011;26812;42.662;23.352;2023-08-12T11:50:18;1.45;;;1.20;;
41061;SDS011;26812;42.662;23.352;2023-08-12T11:52:45;1.58;;;1.13;;
41061;SDS011;26812;42.662;23.352;2023-08-12T11:55:11;1.42;;;0.98;;
41061;SDS011;26812;42.662;23.352;2023-08-12T11:57:38;1.38;;;1.27;;
41061;SDS011;26812;42.662;23.352;2023-08-12T12:00:05;1.77;;;1.15;;
41061;SDS011;26812;42.662;23.352;2023-08-12T12:02:50;1.20;;;1.10;;
41061;SDS011;26812;42.662;23.352;2023-08-12T12:05:18;1.80;;;1.05;;
41061;SDS011;26812;42.662;23.352;2023-08-12T12:07:49;3.53;;;1.30;;
41061;SDS011;26812;42.662;23.352;2023-08-12T12:10:26;2.13;;;1.65;;
41061;SDS011;26812;42.662;23.352;2023-08-12T12:12:54;1.10;;;1.00;;
41061;SDS011;26812;42.662;23.352;2023-08-12T12:15:20;1.45;;;1.25;;
41061;SDS011;26812;42.662;23.352;2023-08-12T12:17:46;1.40;;;1.10;;
41061;SDS011;26812;42.662;23.352;2023-08-12T12:20:13;1.52;;;1.20;;
41061;SDS011;26812;42.662;23.352;2023-08-12T12:22:41;2.75;;;1.33;;
41061;SDS011;26812;42.662;23.352;2023-08-12T12:25:08;1.13;;;0.95;;
41061;SDS011;26812;42.662;23.352;2023-08-12T12:27:36;1.45;;;1.00;;
41061;SDS011;26812;42.662;23.352;2023-08-12T12:30:08;1.00;;;0.90;;
41061;SDS011;26812;42.662;23.352;2023-08-12T12:32:35;0.75;;;0.68;;
41061;SDS011;26812;42.662;23.352;2023-08-12T12:35:01;0.90;;;0.90;;
41061;SDS011;26812;42.662;23.352;2023-08-12T12:37:28;1.27;;;1.17;;
41061;SDS011;26812;42.662;23.352;2023-08-12T12:39:53;1.85;;;1.20;;
41061;SDS011;26812;42.662;23.352;2023-08-12T12:42:19;2.80;;;1.40;;
41061;SDS011;26812;42.662;23.352;2023-08-12T12:44:44;2.67;;;1.23;;
41061;SDS011;26812;42.662;23.352;2023-08-12T12:47:09;1.20;;;1.10;;
41061;SDS011;26812;42.662;23.352;2023-08-12T12:49:37;1.50;;;1.40;;
41061;SDS011;26812;42.662;23.352;2023-08-12T12:52:03;4.45;;;1.20;;
41061;SDS011;26812;42.662;23.352;2023-08-12T12:54:28;2.75;;;1.70;;
41061;SDS011;26812;42.662;23.352;2023-08-12T12:56:55;2.50;;;1.35;;
41061;SDS011;26812;42.662;23.352;2023-08-12T12:59:21;1.75;;;1.65;;
41061;SDS011;26812;42.662;23.352;2023-08-12T13:01:46;3.33;;;1.70;;
41061;SDS011;26812;42.662;23.352;2023-08-12T13:04:12;1.52;;;1.40;;
41061;SDS011;26812;42.662;23.352;2023-08-12T13:06:37;1.30;;;1.20;;
41061;SDS011;26812;42.662;23.352;2023-08-12T13:09:03;1.83;;;1.30;;
41061;SDS011;26812;42.662;23.352;2023-08-12T13:11:31;1.50;;;1.40;;
41061;SDS011;26812;42.662;23.352;2023-08-12T13:13:57;1.60;;;1.30;;
41061;SDS011;26812;42.662;23.352;2023-08-12T13:16:22;1.40;;;1.17;;
41061;SDS011;26812;42.662;23.352;2023-08-12T13:18:48;1.30;;;1.20;;
41061;SDS011;26812;42.662;23.352;2023-08-12T13:21:13;2.05;;;1.38;;
41061;SDS011;26812;42.662;23.352;2023-08-12T13:23:39;1.98;;;1.50;;
41061;SDS011;26812;42.662;23.352;2023-08-12T13:26:04;2.20;;;2.00;;
41061;SDS011;26812;42.662;23.352;2023-08-12T13:28:29;2.15;;;1.50;;
41061;SDS011;26812;42.662;23.352;2023-08-12T13:30:55;1.92;;;1.67;;
41061;SDS011;26812;42.662;23.352;2023-08-12T13:33:20;2.25;;;1.58;;
41061;SDS011;26812;42.662;23.352;2023-08-12T13:35:45;2.17;;;1.52;;
41061;SDS011;26812;42.662;23.352;2023-08-12T13:38:11;2.13;;;1.92;;
41061;SDS011;26812;42.662;23.352;2023-08-12T13:40:36;1.92;;;1.27;;
41061;SDS011;26812;42.662;23.352;2023-08-12T13:43:02;1.52;;;1.42;;
41061;SDS011;26812;42.662;23.352;2023-08-12T13:45:27;3.78;;;1.60;;
41061;SDS011;26812;42.662;23.352;2023-08-12T13:47:53;1.50;;;1.40;;
41061;SDS011;26812;42.662;23.352;2023-08-12T13:50:19;1.27;;;1.17;;
41061;SDS011;26812;42.662;23.352;2023-08-12T13:52:45;2.13;;;1.30;;
41061;SDS011;26812;42.662;23.352;2023-08-12T13:55:12;2.40;;;1.80;;
41061;SDS011;26812;42.662;23.352;2023-08-12T13:57:38;1.63;;;1.27;;
41061;SDS011;26812;42.662;23.352;2023-08-12T14:00:03;2.67;;;1.40;;
41061;SDS011;26812;42.662;23.352;2023-08-12T14:02:34;2.30;;;1.52;;
41061;SDS011;26812;42.662;23.352;2023-08-12T14:05:00;1.88;;;1.20;;
41061;SDS011;26812;42.662;23.352;2023-08-12T14:07:25;1.75;;;1.48;;
41061;SDS011;26812;42.662;23.352;2023-08-12T14:09:50;2.33;;;1.20;;
41061;SDS011;26812;42.662;23.352;2023-08-12T14:12:16;1.90;;;1.75;;
41061;SDS011;26812;42.662;23.352;2023-08-12T14:14:41;1.17;;;1.08;;
41061;SDS011;26812;42.662;23.352;2023-08-12T14:17:07;1.70;;;1.60;;
41061;SDS011;26812;42.662;23.352;2023-08-12T14:19:32;1.15;;;1.05;;
41061;SDS011;26812;42.662;23.352;2023-08-12T14:21:58;1.70;;;1.38;;
41061;SDS011;26812;42.662;23.352;2023-08-12T14:24:23;1.17;;;1.08;;
41061;SDS011;26812;42.662;23.352;2023-08-12T14:26:49;1.50;;;1.40;;
41061;SDS011;26812;42.662;23.352;2023-08-12T14:29:14;1.85;;;1.27;;
41061;SDS011;26812;42.662;23.352;2023-08-12T14:31:40;1.20;;;0.82;;
41061;SDS011;26812;42.662;23.352;2023-08-12T14:34:05;2.25;;;1.40;;
41061;SDS011;26812;42.662;23.352;2023-08-12T14:36:31;2.08;;;1.40;;